Time;durP1;ratioP1;P1;durP2;ratioP2;P2;SDS_P1;SDS_P2;PMS_P1;PMS_P2;Temp;Humidity;BMP_temperature;BMP_pressure;BME280_temperature;BME280_humidity;BME280_pressure;Samples;Min_cycle;Max_cycle;Signal;HPM_P1;HPM_P2
2021/05/21 00:00:54;;;;;;;0.40;0.20;;;10.10;99.90;;;;;;5066855;28;20393;-72
2021/05/21 00:03:19;;;;;;;0.40;0.20;;;10.10;99.90;;;;;;5061096;28;20391;-71
2021/05/21 00:05:45;;;;;;;0.40;0.20;;;10.20;99.90;;;;;;5070906;28;20414;-71
2021/05/21 00:08:11;;;;;;;0.40;0.20;;;10.10;99.90;;;;;;5072489;28;20455;-71
2021/05/21 00:10:38;;;;;;;0.40;0.20;;;10.10;99.90;;;;;;5070798;28;20383;-72
2021/05/21 00:13:03;;;;;;;0.40;0.20;;;10.20;99.90;;;;;;5072049;28;20761;-71
2021/05/21 00:15:29;;;;;;;0.40;0.30;;;10.30;99.90;;;;;;5072153;28;20387;-71
2021/05/21 00:17:55;;;;;;;0.40;0.20;;;10.10;99.90;;;;;;5071349;28;20463;-71
2021/05/21 00:20:21;;;;;;;0.40;0.30;;;10.00;99.90;;;;;;5071968;28;20391;-71
2021/05/21 00:22:46;;;;;;;0.40;0.20;;;10.10;99.90;;;;;;5071152;28;20372;-72
2021/05/21 00:25:12;;;;;;;0.40;0.20;;;10.00;99.90;;;;;;5071822;28;20501;-72
2021/05/21 00:27:38;;;;;;;0.40;0.20;;;10.00;99.90;;;;;;5071213;28;20388;-71
2021/05/21 00:30:05;;;;;;;0.40;0.20;;;9.80;99.90;;;;;;5071691;28;20457;-71
2021/05/21 00:32:31;;;;;;;0.40;0.30;;;9.90;99.90;;;;;;5071876;28;20371;-73
2021/05/21 00:34:56;;;;;;;0.40;0.30;;;9.90;99.90;;;;;;5071075;28;20437;-72
2021/05/21 00:37:22;;;;;;;0.40;0.20;;;10.10;99.90;;;;;;5071720;28;20423;-71
2021/05/21 00:39:48;;;;;;;0.40;0.20;;;10.00;99.90;;;;;;5071017;28;20842;-72
2021/05/21 00:42:13;;;;;;;0.40;0.20;;;9.80;99.90;;;;;;5071561;28;20372;-71
2021/05/21 00:44:39;;;;;;;0.40;0.20;;;9.60;99.90;;;;;;5070572;28;20407;-71
2021/05/21 00:47:05;;;;;;;0.40;0.20;;;9.90;99.90;;;;;;5071941;28;20450;-71
2021/05/21 00:49:31;;;;;;;0.40;0.20;;;10.00;99.90;;;;;;5071549;28;20773;-71
2021/05/21 00:51:57;;;;;;;0.40;0.20;;;9.90;99.90;;;;;;5070850;28;20865;-72
2021/05/21 00:54:22;;;;;;;0.40;0.40;;;9.90;99.90;;;;;;5071467;28;20518;-71
2021/05/21 00:56:48;;;;;;;0.40;0.20;;;10.10;99.90;;;;;;5071028;28;20468;-71
2021/05/21 00:59:15;;;;;;;0.40;0.20;;;9.80;99.90;;;;;;5070904;28;20387;-71
2021/05/21 01:01:41;;;;;;;0.40;0.20;;;9.70;99.90;;;;;;5070582;28;20387;-71
2021/05/21 01:04:07;;;;;;;0.40;0.23;;;9.60;99.90;;;;;;5071120;28;20814;-71
2021/05/21 01:06:32;;;;;;;0.40;0.20;;;9.60;99.90;;;;;;5071308;28;20425;-71
2021/05/21 01:08:59;;;;;;;0.40;0.20;;;9.70;99.90;;;;;;5070455;28;20498;-71
2021/05/21 01:11:26;;;;;;;0.40;0.20;;;9.70;99.90;;;;;;5070938;28;20376;-71
2021/05/21 01:13:51;;;;;;;0.40;0.20;;;9.70;99.90;;;;;;5070216;28;20396;-71
2021/05/21 01:16:17;;;;;;;0.40;0.20;;;10.00;99.90;;;;;;5070936;28;20489;-71
2021/05/21 01:18:43;;;;;;;0.40;0.20;;;9.80;99.90;;;;;;5070408;28;20392;-71
2021/05/21 01:21:09;;;;;;;0.40;0.20;;;9.80;99.90;;;;;;5070571;28;20376;-71
2021/05/21 01:23:35;;;;;;;0.40;0.30;;;10.10;99.90;;;;;;5070467;28;20869;-76
2021/05/21 01:26:00;;;;;;;0.40;0.20;;;9.70;99.90;;;;;;5070320;28;20433;-71
2021/05/21 01:28:26;;;;;;;0.40;0.20;;;9.80;99.90;;;;;;5068924;28;20506;-71
2021/05/21 01:30:52;;;;;;;0.40;0.20;;;9.40;99.90;;;;;;5070047;28;20826;-72
2021/05/21 01:33:18;;;;;;;0.40;0.20;;;9.60;99.90;;;;;;5070765;28;20898;-71
2021/05/21 01:35:44;;;;;;;0.40;0.20;;;9.60;99.90;;;;;;5069711;28;20419;-71
2021/05/21 01:38:12;;;;;;;0.40;0.30;;;9.70;99.90;;;;;;5070733;28;20850;-72
2021/05/21 01:40:38;;;;;;;0.40;0.20;;;9.70;99.90;;;;;;5070249;28;20415;-78
2021/05/21 01:43:05;;;;;;;0.40;0.20;;;9.60;99.90;;;;;;5070391;28;20411;-71
2021/05/21 01:45:31;;;;;;;0.40;0.20;;;9.60;99.90;;;;;;5070533;28;20418;-72
2021/05/21 01:47:57;;;;;;;0.40;0.20;;;9.50;99.90;;;;;;5069891;28;20474;-71
2021/05/21 01:50:24;;;;;;;0.40;0.20;;;9.50;99.90;;;;;;5070480;28;20390;-71
2021/05/21 01:52:49;;;;;;;0.40;0.30;;;9.50;99.90;;;;;;5069532;28;20745;-71
2021/05/21 01:55:15;;;;;;;0.40;0.20;;;9.40;99.90;;;;;;5068871;28;20396;-71
2021/05/21 01:57:42;;;;;;;0.40;0.30;;;9.80;99.90;;;;;;5069778;28;20372;-74
2021/05/21 02:00:10;;;;;;;0.40;0.30;;;9.50;99.90;;;;;;5070519;28;20383;-71
2021/05/21 02:02:37;;;;;;;0.40;0.20;;;9.40;99.90;;;;;;5070316;28;20406;-71
2021/05/21 02:05:04;;;;;;;0.40;0.30;;;9.40;99.90;;;;;;5069816;28;20399;-71
2021/05/21 02:07:30;;;;;;;0.40;0.20;;;9.40;99.90;;;;;;5070242;28;20383;-71
2021/05/21 02:10:02;;;;;;;0.40;0.30;;;10.20;99.90;;;;;;5069383;28;20384;-71
2021/05/21 02:12:29;;;;;;;0.40;0.20;;;9.40;99.90;;;;;;5070738;28;20595;-71
2021/05/21 02:14:57;;;;;;;0.40;0.20;;;9.30;99.90;;;;;;5069140;28;20403;-71
2021/05/21 02:17:24;;;;;;;0.40;0.20;;;9.40;99.90;;;;;;5070301;28;20394;-71
2021/05/21 02:19:51;;;;;;;0.40;0.30;;;9.60;99.90;;;;;;5069593;28;20368;-71
2021/05/21 02:22:19;;;;;;;0.40;0.20;;;9.30;99.90;;;;;;5070244;28;20391;-71
2021/05/21 02:24:45;;;;;;;0.40;0.20;;;9.40;99.90;;;;;;5068982;28;20411;-71
2021/05/21 02:27:11;;;;;;;0.40;0.30;;;9.30;99.90;;;;;;5070175;28;20379;-71
2021/05/21 02:29:38;;;;;;;0.40;0.20;;;9.40;99.90;;;;;;5070085;28;20380;-71
2021/05/21 02:32:04;;;;;;;0.40;0.30;;;9.50;99.90;;;;;;5069944;28;20861;-71
2021/05/21 02:34:30;;;;;;;0.40;0.20;;;9.40;99.90;;;;;;5073771;28;20398;-71
2021/05/21 02:36:56;;;;;;;0.40;0.30;;;9.50;99.90;;;;;;5073210;28;20403;-71
2021/05/21 02:39:21;;;;;;;0.40;0.30;;;9.20;99.90;;;;;;5073630;28;20444;-71
2021/05/21 02:41:47;;;;;;;0.40;0.20;;;9.20;99.90;;;;;;5073093;28;20379;-71
2021/05/21 02:44:13;;;;;;;0.40;0.20;;;9.40;99.90;;;;;;5073789;28;20418;-72
2021/05/21 02:46:38;;;;;;;0.40;0.20;;;9.40;99.90;;;;;;5074061;28;20517;-71
2021/05/21 02:49:04;;;;;;;2.60;0.70;;;9.60;99.90;;;;;;5073077;28;20726;-71
2021/05/21 02:51:30;;;;;;;0.40;0.20;;;10.00;99.90;;;;;;5073887;28;20453;-71
2021/05/21 02:53:55;;;;;;;0.40;0.20;;;9.80;99.90;;;;;;5073329;28;20399;-71
2021/05/21 02:56:21;;;;;;;0.40;0.20;;;9.30;99.90;;;;;;5073692;28;20758;-72
2021/05/21 02:58:47;;;;;;;0.40;0.30;;;9.50;99.90;;;;;;5072777;28;20473;-72
2021/05/21 03:01:12;;;;;;;0.40;0.20;;;9.40;99.90;;;;;;5073714;28;20379;-71
2021/05/21 03:03:38;;;;;;;0.40;0.30;;;9.50;99.90;;;;;;5073434;28;20391;-71
2021/05/21 03:06:03;;;;;;;0.40;0.30;;;9.30;99.90;;;;;;5072680;28;20399;-71
2021/05/21 03:08:29;;;;;;;0.40;0.20;;;9.40;99.90;;;;;;5073904;28;20907;-71
2021/05/21 03:10:55;;;;;;;0.40;0.30;;;9.50;99.90;;;;;;5072654;28;20410;-71
2021/05/21 03:13:21;;;;;;;0.40;0.20;;;9.60;99.90;;;;;;5073454;28;20390;-71
2021/05/21 03:15:47;;;;;;;0.50;0.50;;;9.30;99.90;;;;;;5072364;28;20383;-71
2021/05/21 03:18:14;;;;;;;0.40;0.20;;;9.40;99.90;;;;;;5073055;28;20383;-71
2021/05/21 03:20:41;;;;;;;0.40;0.20;;;9.70;99.90;;;;;;5073150;28;20380;-72
2021/05/21 03:23:07;;;;;;;0.40;0.20;;;9.50;99.90;;;;;;5072644;28;20484;-71
2021/05/21 03:25:33;;;;;;;0.40;0.40;;;9.40;99.90;;;;;;5073181;28;20395;-71
2021/05/21 03:27:59;;;;;;;0.40;0.20;;;9.60;99.90;;;;;;5072438;28;20441;-71
2021/05/21 03:30:24;;;;;;;0.40;0.20;;;9.80;99.90;;;;;;5073056;28;20467;-71
2021/05/21 03:32:50;;;;;;;0.40;0.20;;;9.60;99.90;;;;;;5072328;28;20375;-71
2021/05/21 03:35:16;;;;;;;0.40;0.20;;;9.60;99.90;;;;;;5073116;28;20392;-72
2021/05/21 03:37:42;;;;;;;0.40;0.20;;;9.70;99.90;;;;;;5071363;28;20404;-71
2021/05/21 03:40:08;;;;;;;0.40;0.23;;;9.60;99.90;;;;;;5070860;28;20379;-71
2021/05/21 03:42:34;;;;;;;0.40;0.20;;;9.60;99.90;;;;;;5071051;28;20383;-71
2021/05/21 03:44:59;;;;;;;0.40;0.20;;;9.50;99.90;;;;;;5070109;28;20421;-72
2021/05/21 03:47:26;;;;;;;0.40;0.20;;;9.70;99.90;;;;;;5071747;28;20388;-72
2021/05/21 03:49:51;;;;;;;0.40;0.30;;;9.60;99.90;;;;;;5070686;28;20388;-72
2021/05/21 03:52:17;;;;;;;0.40;0.20;;;9.70;99.90;;;;;;5071839;28;20398;-71
2021/05/21 03:54:43;;;;;;;0.40;0.28;;;10.40;99.90;;;;;;5071514;28;20460;-72
2021/05/21 03:57:09;;;;;;;0.40;0.20;;;10.20;99.90;;;;;;5071143;28;20771;-71
2021/05/21 03:59:35;;;;;;;0.40;0.20;;;9.80;99.90;;;;;;5071401;28;20384;-71
2021/05/21 04:02:01;;;;;;;0.40;0.20;;;9.90;99.90;;;;;;5069401;28;20380;-71
2021/05/21 04:04:26;;;;;;;0.40;0.30;;;9.80;99.90;;;;;;5071601;28;20820;-71
2021/05/21 04:06:52;;;;;;;0.40;0.20;;;9.90;99.90;;;;;;5070429;28;20486;-71
2021/05/21 04:09:17;;;;;;;0.40;0.20;;;10.30;99.90;;;;;;5071217;28;20418;-72
2021/05/21 04:11:43;;;;;;;0.40;0.20;;;9.90;99.90;;;;;;5071753;28;20460;-71
2021/05/21 04:14:09;;;;;;;0.40;0.30;;;10.00;99.90;;;;;;5071353;28;20396;-72
2021/05/21 04:16:35;;;;;;;0.40;0.20;;;10.10;99.90;;;;;;5071619;28;20379;-71
2021/05/21 04:19:00;;;;;;;0.40;0.30;;;10.10;99.90;;;;;;5070905;28;20731;-71
2021/05/21 04:21:26;;;;;;;0.40;0.20;;;10.20;99.90;;;;;;5071535;28;20769;-71
2021/05/21 04:23:54;;;;;;;0.40;0.20;;;10.20;99.90;;;;;;5070789;28;20383;-72
2021/05/21 04:26:20;;;;;;;0.40;0.20;;;10.40;99.90;;;;;;5069963;28;20419;-71
2021/05/21 04:28:48;;;;;;;0.40;0.20;;;10.40;99.90;;;;;;5071051;28;20394;-76
2021/05/21 04:31:17;;;;;;;0.40;0.20;;;10.50;99.90;;;;;;5071103;28;20537;-71
2021/05/21 04:33:43;;;;;;;0.40;0.20;;;10.50;99.90;;;;;;5071373;28;20384;-72
2021/05/21 04:36:08;;;;;;;0.60;0.60;;;10.60;99.90;;;;;;5023905;28;1313050;-71
2021/05/21 04:38:34;;;;;;;0.40;0.20;;;10.60;99.90;;;;;;5071710;28;20482;-72
2021/05/21 04:41:00;;;;;;;0.40;0.20;;;10.70;99.90;;;;;;5071328;28;20379;-72
2021/05/21 04:43:27;;;;;;;0.40;0.20;;;11.10;99.90;;;;;;5072092;28;20380;-72
2021/05/21 04:45:53;;;;;;;0.40;0.20;;;10.90;99.90;;;;;;5071184;28;20419;-72
2021/05/21 04:48:20;;;;;;;0.40;0.30;;;11.00;99.90;;;;;;5072138;28;20383;-72
2021/05/21 04:50:46;;;;;;;0.40;0.20;;;11.00;99.90;;;;;;5071880;28;20390;-71
2021/05/21 04:53:13;;;;;;;0.40;0.20;;;11.10;99.90;;;;;;5070023;28;20383;-72
2021/05/21 04:55:41;;;;;;;0.40;0.20;;;11.00;99.90;;;;;;5071266;28;20388;-72
2021/05/21 04:58:07;;;;;;;0.40;0.20;;;11.20;99.90;;;;;;5071087;28;20463;-72
2021/05/21 05:00:33;;;;;;;0.40;0.20;;;11.30;99.90;;;;;;5071423;28;20742;-72
2021/05/21 05:03:08;;;;;;;0.40;0.20;;;11.40;99.90;;;;;;5070998;28;20406;-72
2021/05/21 05:05:35;;;;;;;0.40;0.22;;;11.50;99.90;;;;;;5071497;28;20469;-72
2021/05/21 05:08:01;;;;;;;0.40;0.20;;;11.60;99.90;;;;;;5066983;28;20386;-72
2021/05/21 05:10:26;;;;;;;0.40;0.20;;;11.70;99.90;;;;;;5069297;28;20466;-72
2021/05/21 05:12:52;;;;;;;0.40;0.30;;;11.80;99.90;;;;;;5070463;28;20814;-77
2021/05/21 05:15:19;;;;;;;0.40;0.20;;;11.90;99.90;;;;;;5071416;28;20398;-72
2021/05/21 05:17:48;;;;;;;0.40;0.30;;;12.00;99.90;;;;;;5066639;28;20741;-72
2021/05/21 05:20:14;;;;;;;0.40;0.30;;;12.10;99.90;;;;;;5063967;28;20434;-72
2021/05/21 05:22:40;;;;;;;0.40;0.30;;;12.40;99.90;;;;;;5069992;28;20413;-72
2021/05/21 05:25:07;;;;;;;0.40;0.20;;;12.50;99.90;;;;;;5064408;28;20411;-72
2021/05/21 05:27:34;;;;;;;0.40;0.30;;;12.40;99.90;;;;;;5070916;28;20449;-72
2021/05/21 05:29:59;;;;;;;0.40;0.20;;;12.60;99.90;;;;;;5068974;28;20413;-73
2021/05/21 05:32:25;;;;;;;0.40;0.20;;;13.30;96.60;;;;;;5071010;28;20372;-73
2021/05/21 05:34:50;;;;;;;0.40;0.20;;;13.70;93.00;;;;;;5070351;28;20489;-76
2021/05/21 05:37:16;;;;;;;0.40;0.20;;;14.70;84.60;;;;;;5058711;28;20482;-73
2021/05/21 05:39:43;;;;;;;0.40;0.30;;;15.50;78.20;;;;;;5056877;28;20412;-75
2021/05/21 05:42:08;;;;;;;0.40;0.20;;;15.60;76.60;;;;;;5058627;28;20456;-73
2021/05/21 05:44:34;;;;;;;0.40;0.20;;;15.90;75.10;;;;;;5055632;28;20423;-74
2021/05/21 05:47:00;;;;;;;0.40;0.30;;;16.10;73.50;;;;;;5055791;28;20402;-73
2021/05/21 05:49:25;;;;;;;0.40;0.30;;;16.20;72.30;;;;;;5052319;28;20376;-75
2021/05/21 05:51:51;;;;;;;0.40;0.20;;;16.20;72.10;;;;;;5054235;28;20391;-79
2021/05/21 05:54:17;;;;;;;0.40;0.20;;;16.30;71.50;;;;;;5056848;28;20375;-76
2021/05/21 05:56:42;;;;;;;0.40;0.20;;;16.40;71.20;;;;;;5057443;28;20399;-73
2021/05/21 05:59:08;;;;;;;0.40;0.20;;;16.50;70.00;;;;;;5054037;28;20772;-74
2021/05/21 06:01:34;;;;;;;0.40;0.20;;;16.60;70.20;;;;;;5054903;28;20397;-73
2021/05/21 06:03:59;;;;;;;0.40;0.20;;;16.50;70.90;;;;;;5055738;28;20411;-73
2021/05/21 06:06:25;;;;;;;0.40;0.30;;;16.60;69.00;;;;;;5054121;28;20423;-73
2021/05/21 06:08:51;;;;;;;0.40;0.20;;;16.70;68.70;;;;;;5054686;28;20427;-77
2021/05/21 06:11:16;;;;;;;0.40;0.30;;;16.70;68.30;;;;;;5056065;28;20387;-74
2021/05/21 06:13:42;;;;;;;0.40;0.20;;;16.60;69.30;;;;;;5057421;28;20391;-75
2021/05/21 06:16:08;;;;;;;0.40;0.20;;;16.60;69.50;;;;;;5056051;28;20404;-75
2021/05/21 06:18:33;;;;;;;0.40;0.30;;;16.50;68.70;;;;;;5054659;28;20380;-73
2021/05/21 06:20:59;;;;;;;0.40;0.30;;;16.70;68.60;;;;;;5055629;28;20414;-73
2021/05/21 06:23:25;;;;;;;0.40;0.30;;;16.70;68.20;;;;;;5057116;28;20433;-74
2021/05/21 06:28:19;;;;;;;0.40;0.20;;;16.70;67.80;;;;;;5054541;28;20407;-76
2021/05/21 06:30:46;;;;;;;0.40;0.30;;;16.80;67.50;;;;;;5056405;28;20869;-72
2021/05/21 06:33:12;;;;;;;0.40;0.20;;;16.70;67.90;;;;;;5056183;28;20376;-75
2021/05/21 06:35:38;;;;;;;0.40;0.27;;;16.70;67.20;;;;;;5057224;28;20417;-75
2021/05/21 06:38:05;;;;;;;0.40;0.20;;;16.80;67.50;;;;;;5056194;28;20376;-76
2021/05/21 06:40:31;;;;;;;0.40;0.30;;;16.90;66.90;;;;;;5054657;28;20511;-76
2021/05/21 06:42:56;;;;;;;0.40;0.20;;;16.80;67.70;;;;;;5055863;28;20753;-78
2021/05/21 06:45:23;;;;;;;0.40;0.40;;;16.70;68.50;;;;;;5055658;28;20419;-74
2021/05/21 06:47:48;;;;;;;0.40;0.20;;;16.70;68.10;;;;;;5056233;28;20383;-73
2021/05/21 06:50:14;;;;;;;0.40;0.23;;;16.60;69.00;;;;;;5053018;28;20390;-73
2021/05/21 06:52:41;;;;;;;0.40;0.20;;;16.60;69.00;;;;;;5056936;28;20380;-73
2021/05/21 06:55:07;;;;;;;0.40;0.30;;;16.60;69.80;;;;;;5055481;28;20380;-74
2021/05/21 06:57:34;;;;;;;0.50;0.50;;;16.40;70.20;;;;;;5056925;28;20491;-74
2021/05/21 07:00:00;;;;;;;0.40;0.20;;;16.40;70.50;;;;;;5053500;28;20401;-75
2021/05/21 07:02:28;;;;;;;0.40;0.30;;;16.40;70.60;;;;;;5056453;28;20376;-78
2021/05/21 07:04:54;;;;;;;0.40;0.30;;;16.30;70.70;;;;;;5056235;28;20412;-73
2021/05/21 07:07:20;;;;;;;0.40;0.40;;;16.20;71.60;;;;;;5055102;28;20409;-73
2021/05/21 07:09:45;;;;;;;0.40;0.20;;;16.20;72.20;;;;;;5052725;28;20530;-74
2021/05/21 07:12:11;;;;;;;0.40;0.30;;;16.20;71.80;;;;;;5054077;28;20383;-75
2021/05/21 07:14:37;;;;;;;0.40;0.30;;;16.20;72.30;;;;;;5055987;28;20396;-78
2021/05/21 07:17:03;;;;;;;0.50;0.50;;;16.20;72.60;;;;;;5056045;28;20923;-75
2021/05/21 07:19:31;;;;;;;0.40;0.20;;;16.20;72.80;;;;;;5057004;28;20395;-73
2021/05/21 07:21:57;;;;;;;0.40;0.30;;;16.10;73.50;;;;;;5059779;28;20466;-75
2021/05/21 07:24:22;;;;;;;0.40;0.30;;;16.20;73.50;;;;;;5059304;28;20394;-73
2021/05/21 07:26:48;;;;;;;0.40;0.20;;;16.30;73.10;;;;;;5059796;28;20407;-76
2021/05/21 07:29:15;;;;;;;0.40;0.20;;;16.20;73.10;;;;;;5053863;28;20481;-74
2021/05/21 07:31:41;;;;;;;0.40;0.30;;;16.10;73.90;;;;;;5056336;28;20498;-77
2021/05/21 07:34:07;;;;;;;0.40;0.20;;;16.10;74.60;;;;;;5058164;28;20510;-77
2021/05/21 07:36:35;;;;;;;0.40;0.20;;;16.10;75.30;;;;;;5059248;28;20411;-76
2021/05/21 07:39:01;;;;;;;0.40;0.20;;;16.00;75.90;;;;;;5058064;28;20472;-79
2021/05/21 07:41:27;;;;;;;0.40;0.20;;;16.00;77.00;;;;;;5059407;28;20407;-75
2021/05/21 07:43:54;;;;;;;0.40;0.40;;;15.90;77.80;;;;;;5058948;28;21034;-76
2021/05/21 07:46:24;;;;;;;0.40;0.30;;;15.80;78.80;;;;;;5059680;28;20738;-77
2021/05/21 07:48:51;;;;;;;0.40;0.30;;;15.60;81.70;;;;;;5058172;28;20380;-75
2021/05/21 07:51:20;;;;;;;0.40;0.30;;;15.30;85.50;;;;;;5059210;28;20474;-74
2021/05/21 07:53:47;;;;;;;0.40;0.20;;;15.10;86.40;;;;;;5060024;28;20395;-74
2021/05/21 07:56:13;;;;;;;0.40;0.20;;;15.10;86.90;;;;;;5058964;28;20730;-73
2021/05/21 07:58:38;;;;;;;0.40;0.20;;;15.00;87.70;;;;;;5057526;28;20438;-77
2021/05/21 08:01:04;;;;;;;0.40;0.20;;;15.00;89.50;;;;;;5058475;28;20424;-73
2021/05/21 08:03:30;;;;;;;0.40;0.20;;;14.90;90.00;;;;;;5057794;28;20809;-74
2021/05/21 08:05:59;;;;;;;0.40;0.20;;;14.70;93.70;;;;;;5058686;28;20411;-76
2021/05/21 08:08:26;;;;;;;0.40;0.30;;;14.50;93.90;;;;;;5057621;28;20384;-77
2021/05/21 08:10:53;;;;;;;0.40;0.20;;;14.40;95.50;;;;;;5057732;28;21137;-74
2021/05/21 08:13:20;;;;;;;0.40;0.30;;;14.10;97.20;;;;;;5057479;28;20407;-76
2021/05/21 08:15:45;;;;;;;0.40;0.20;;;13.50;99.90;;;;;;5057303;28;20430;-79
2021/05/21 08:18:11;;;;;;;0.40;0.20;;;13.40;99.90;;;;;;5056930;28;20396;-74
2021/05/21 08:20:38;;;;;;;0.40;0.30;;;12.70;99.90;;;;;;5057781;28;20398;-73
2021/05/21 08:23:05;;;;;;;0.40;0.30;;;11.90;99.90;;;;;;5058395;28;20493;-74
2021/05/21 08:25:31;;;;;;;0.40;0.20;;;12.60;99.90;;;;;;5058520;28;20897;-75
2021/05/21 08:27:57;;;;;;;0.40;0.20;;;12.50;99.90;;;;;;5058525;28;20407;-73
2021/05/21 08:30:24;;;;;;;0.40;0.20;;;12.60;99.90;;;;;;5055683;28;20412;-76
2021/05/21 08:32:50;;;;;;;0.40;0.20;;;12.50;99.90;;;;;;5059347;28;20461;-76
2021/05/21 08:35:17;;;;;;;0.40;0.20;;;12.40;99.90;;;;;;5055866;28;20400;-77
2021/05/21 08:37:43;;;;;;;0.40;0.20;;;13.30;99.90;;;;;;5055024;28;20439;-77
2021/05/21 08:40:11;;;;;;;0.40;0.40;;;12.30;99.90;;;;;;5054207;28;20521;-77
2021/05/21 08:42:39;;;;;;;0.40;0.20;;;12.40;99.90;;;;;;5056293;28;20380;-77
2021/05/21 08:45:07;;;;;;;0.40;0.20;;;12.30;99.90;;;;;;5058212;28;20925;-77
2021/05/21 08:47:34;;;;;;;0.40;0.20;;;12.40;99.90;;;;;;5060004;28;20395;-76
2021/05/21 08:50:09;;;;;;;0.40;0.20;;;12.30;99.90;;;;;;5058155;28;20461;-82
2021/05/21 08:52:35;;;;;;;0.40;0.40;;;12.40;99.90;;;;;;5064468;28;20865;-77
2021/05/21 08:55:00;;;;;;;0.40;0.30;;;12.30;99.90;;;;;;5071733;28;20380;-79
2021/05/21 08:57:30;;;;;;;0.40;0.20;;;12.40;99.90;;;;;;5070798;28;20881;-81
2021/05/21 08:59:55;;;;;;;0.40;0.20;;;12.30;99.90;;;;;;5055620;28;20394;-80
2021/05/21 09:02:24;;;;;;;0.40;0.30;;;12.30;99.90;;;;;;5069735;28;20475;-79
2021/05/21 09:04:58;;;;;;;0.40;0.20;;;12.30;99.90;;;;;;5071141;28;20410;-80
2021/05/21 09:07:32;;;;;;;0.40;0.20;;;12.30;99.90;;;;;;5070371;28;20471;-81
2021/05/21 09:10:09;;;;;;;0.40;0.20;;;12.30;99.90;;;;;;5070943;28;20380;-79
2021/05/21 09:12:46;;;;;;;0.40;0.30;;;12.30;99.90;;;;;;5071121;28;20722;-79
2021/05/21 09:15:13;;;;;;;0.40;0.30;;;12.30;99.90;;;;;;5070352;28;20453;-78
2021/05/21 09:17:52;;;;;;;1.00;0.60;;;12.30;99.90;;;;;;5070950;28;20388;-80
2021/05/21 09:20:39;;;;;;;0.40;0.20;;;12.30;99.90;;;;;;5070274;28;20380;-79
2021/05/21 09:23:16;;;;;;;0.40;0.20;;;12.30;99.90;;;;;;5070483;28;20882;-77
2021/05/21 09:25:45;;;;;;;0.40;0.20;;;12.20;99.90;;;;;;5070876;28;20410;-77
2021/05/21 09:28:33;;;;;;;0.40;0.20;;;12.30;99.90;;;;;;5069819;28;20433;-79
2021/05/21 09:31:08;;;;;;;0.40;0.20;;;12.30;99.90;;;;;;5070649;28;20383;-78
2021/05/21 09:33:35;;;;;;;0.40;0.20;;;12.30;99.90;;;;;;5070690;28;20923;-75
2021/05/21 09:36:01;;;;;;;0.40;0.30;;;12.10;99.90;;;;;;5070448;28;20456;-76
2021/05/21 09:38:27;;;;;;;0.40;0.20;;;12.40;99.90;;;;;;5069797;28;21146;-76
2021/05/21 09:40:52;;;;;;;0.40;0.20;;;12.40;99.90;;;;;;5070454;28;20408;-77
2021/05/21 09:43:22;;;;;;;0.40;0.20;;;12.40;99.90;;;;;;5069476;28;20437;-77
2021/05/21 09:45:48;;;;;;;0.40;0.20;;;12.40;99.90;;;;;;5070520;28;20483;-77
2021/05/21 09:48:15;;;;;;;0.40;0.30;;;12.40;99.90;;;;;;5070052;28;20518;-77
2021/05/21 09:50:50;;;;;;;0.40;0.30;;;12.50;99.90;;;;;;5070679;28;20380;-76
2021/05/21 09:53:26;;;;;;;0.40;0.20;;;12.50;99.90;;;;;;5069936;28;20376;-76
2021/05/21 09:56:05;;;;;;;0.40;0.20;;;12.70;99.90;;;;;;5070714;28;20466;-76
2021/05/21 09:58:37;;;;;;;0.40;0.20;;;12.60;99.90;;;;;;5068548;28;20777;-78
2021/05/21 10:01:22;;;;;;;0.40;0.30;;;12.60;99.90;;;;;;5070605;28;20402;-77
2021/05/21 10:03:53;;;;;;;0.60;0.60;;;12.80;99.90;;;;;;5071108;28;20892;-77
2021/05/21 10:06:19;;;;;;;0.40;0.20;;;13.00;99.90;;;;;;5070194;28;20457;-76
2021/05/21 10:08:47;;;;;;;0.40;0.20;;;13.20;99.90;;;;;;5070954;28;20853;-77
2021/05/21 10:11:14;;;;;;;0.40;0.20;;;13.20;99.90;;;;;;5067887;28;20723;-77
2021/05/21 10:13:44;;;;;;;0.40;0.20;;;13.30;99.90;;;;;;5056429;28;20402;-77
2021/05/21 10:16:12;;;;;;;0.40;0.30;;;13.30;99.90;;;;;;5054417;28;20402;-75
2021/05/21 10:18:42;;;;;;;0.40;0.30;;;13.30;99.90;;;;;;5057505;28;20766;-75
2021/05/21 10:21:09;;;;;;;0.40;0.25;;;13.30;99.90;;;;;;5062702;28;20448;-76
2021/05/21 10:24:02;;;;;;;0.40;0.20;;;13.40;99.90;;;;;;5059651;28;20385;-75
2021/05/21 10:26:42;;;;;;;0.40;0.20;;;13.40;99.90;;;;;;5065357;28;20882;-76
2021/05/21 10:29:11;;;;;;;0.40;0.30;;;13.50;99.90;;;;;;5065797;28;20391;-75
2021/05/21 10:31:37;;;;;;;0.40;0.20;;;13.50;99.90;;;;;;5068025;28;20379;-74
2021/05/21 10:34:18;;;;;;;0.40;0.20;;;13.60;99.90;;;;;;5067367;28;20862;-76
2021/05/21 10:36:45;;;;;;;0.40;0.20;;;13.70;97.40;;;;;;5069385;28;20415;-74
2021/05/21 10:39:22;;;;;;;0.40;0.20;;;13.70;98.40;;;;;;5068519;28;20727;-74
2021/05/21 10:41:52;;;;;;;0.40;0.30;;;13.70;96.30;;;;;;5062044;28;20400;-74
2021/05/21 10:44:28;;;;;;;0.40;0.20;;;13.90;95.20;;;;;;5061104;28;20403;-75
2021/05/21 10:47:16;;;;;;;0.40;0.25;;;13.90;93.70;;;;;;5061592;28;20482;-74
2021/05/21 10:50:02;;;;;;;0.40;0.20;;;13.90;96.20;;;;;;5060411;28;20403;-74
2021/05/21 10:52:57;;;;;;;0.40;0.20;;;13.80;98.60;;;;;;5060538;28;20438;-75
2021/05/21 10:55:55;;;;;;;0.40;0.20;;;13.50;99.90;;;;;;5072127;28;20427;-75
2021/05/21 10:58:29;;;;;;;0.40;0.20;;;13.20;99.90;;;;;;5061657;28;20392;-75
2021/05/21 11:01:08;;;;;;;0.40;0.20;;;13.10;99.90;;;;;;5101768;28;20396;-74
2021/05/21 11:04:02;;;;;;;0.40;0.20;;;13.30;97.90;;;;;;5064811;28;20401;-74
2021/05/21 11:06:41;;;;;;;0.40;0.20;;;13.50;99.20;;;;;;5056566;28;20844;-74
2021/05/21 11:09:12;;;;;;;0.40;0.20;;;13.60;94.20;;;;;;5065110;28;20437;-74
2021/05/21 11:11:48;;;;;;;0.50;0.50;;;13.70;94.60;;;;;;5072787;28;20380;-74
2021/05/21 11:14:26;;;;;;;0.40;0.20;;;13.70;95.10;;;;;;5065267;28;20837;-75
2021/05/21 11:16:54;;;;;;;0.40;0.20;;;13.50;98.80;;;;;;5052658;28;20458;-74
2021/05/21 11:19:22;;;;;;;0.40;0.20;;;13.40;98.60;;;;;;5059689;28;20425;-74
2021/05/21 11:22:05;;;;;;;0.40;0.20;;;13.30;99.50;;;;;;5070854;28;20380;-75
2021/05/21 11:24:37;;;;;;;0.40;0.20;;;13.20;99.80;;;;;;5071412;28;20387;-74
2021/05/21 11:27:03;;;;;;;0.40;0.20;;;13.10;99.90;;;;;;5071547;28;20789;-74
2021/05/21 11:29:29;;;;;;;0.40;0.20;;;13.00;98.90;;;;;;5069923;28;20392;-74
2021/05/21 11:31:54;;;;;;;0.40;0.30;;;13.10;96.40;;;;;;5072573;28;20383;-74
2021/05/21 11:34:20;;;;;;;0.40;0.20;;;13.10;97.40;;;;;;5072403;28;20467;-74
2021/05/21 11:36:46;;;;;;;0.40;0.30;;;13.10;97.20;;;;;;5073162;28;20399;-73
2021/05/21 11:39:12;;;;;;;0.40;0.30;;;13.10;96.10;;;;;;5073078;28;20376;-75
2021/05/21 11:41:44;;;;;;;0.40;0.20;;;13.20;95.60;;;;;;5071841;28;20384;-74
2021/05/21 11:44:12;;;;;;;0.40;0.30;;;13.20;97.30;;;;;;5073546;28;20402;-73
2021/05/21 11:46:43;;;;;;;0.40;0.20;;;13.10;96.50;;;;;;5052393;28;20520;-73
2021/05/21 11:49:19;;;;;;;0.40;0.20;;;13.10;96.30;;;;;;5052895;28;20442;-73
2021/05/21 11:52:00;;;;;;;0.40;0.20;;;13.00;98.70;;;;;;5052347;28;20396;-73
2021/05/21 11:54:27;;;;;;;0.40;0.20;;;12.70;99.90;;;;;;5053322;28;20395;-74
2021/05/21 11:56:54;;;;;;;0.40;0.20;;;12.80;99.80;;;;;;5053481;28;20390;-74
2021/05/21 11:59:22;;;;;;;0.40;0.20;;;12.60;99.90;;;;;;5053687;28;20382;-75
2021/05/21 12:01:52;;;;;;;0.40;0.20;;;12.50;99.90;;;;;;5067383;28;20380;-75
2021/05/21 12:04:20;;;;;;;0.40;0.30;;;12.30;99.90;;;;;;5070931;28;20952;-76
2021/05/21 12:06:51;;;;;;;0.40;0.30;;;11.90;99.90;;;;;;5073282;28;20722;-76
2021/05/21 12:09:21;;;;;;;0.40;0.20;;;11.80;99.90;;;;;;5063465;28;20380;-76
2021/05/21 12:11:48;;;;;;;0.40;0.20;;;11.50;99.90;;;;;;5051900;28;20408;-76
2021/05/21 12:14:16;;;;;;;0.40;0.20;;;11.40;99.90;;;;;;5052669;28;20931;-75
2021/05/21 12:16:44;;;;;;;0.40;0.20;;;11.20;99.90;;;;;;5052760;28;20381;-76
2021/05/21 12:19:11;;;;;;;0.40;0.20;;;11.10;99.90;;;;;;5053095;28;20416;-75
2021/05/21 12:21:39;;;;;;;0.40;0.20;;;11.20;99.90;;;;;;5052379;28;20394;-75
2021/05/21 12:24:06;;;;;;;0.40;0.20;;;11.20;99.90;;;;;;5052888;28;20397;-74
2021/05/21 12:26:35;;;;;;;0.40;0.30;;;11.10;99.90;;;;;;5052241;28;20772;-74
2021/05/21 12:29:06;;;;;;;0.40;0.30;;;10.90;99.90;;;;;;5052933;28;20425;-74
2021/05/21 12:31:36;;;;;;;0.40;0.20;;;10.90;99.90;;;;;;5052336;28;20385;-74
2021/05/21 12:34:02;;;;;;;0.40;0.20;;;10.90;99.90;;;;;;5051254;28;20600;-75
2021/05/21 12:36:31;;;;;;;0.50;0.50;;;10.80;99.90;;;;;;5051822;28;20867;-75
2021/05/21 12:39:04;;;;;;;0.70;0.70;;;10.80;99.90;;;;;;5052144;28;20473;-74
2021/05/21 12:41:32;;;;;;;0.40;0.20;;;10.90;99.90;;;;;;5051445;28;20386;-73
2021/05/21 12:44:10;;;;;;;0.40;0.20;;;11.00;99.90;;;;;;5051872;28;20396;-73
2021/05/21 12:46:40;;;;;;;0.40;0.20;;;10.90;99.90;;;;;;5051610;28;20477;-74
2021/05/21 12:49:08;;;;;;;0.40;0.30;;;10.80;99.90;;;;;;5052116;28;20477;-73
2021/05/21 12:51:34;;;;;;;0.40;0.30;;;10.80;99.90;;;;;;5051335;28;20424;-73
2021/05/21 12:54:28;;;;;;;0.40;0.20;;;10.90;99.90;;;;;;5052298;28;20382;-73
2021/05/21 12:57:15;;;;;;;0.40;0.20;;;11.00;99.90;;;;;;5052287;28;20380;-73